DRGN01 YPLM-YAMB
Flight info
| Callsign | DRGN01 |
|---|---|
| Flight time | 4h 40m |
| Altitude | 39000 |
| Route | ONSLO J93 KA T85 AS T11 PULOL/N0476F410 T11 ROM Y195 ELENI |
| Aircraft | A332/H-SADE1E2E3GHIJ3J5M1P2RWXY/LB2D1 |
Departure
| Time | 2026-04-26 20:20 |
|---|---|
| Airport | Learmonth Airport (YPLM) |
Arrival
| Time | 2026-04-27 01:00 |
|---|---|
| Airport | RAAF Base Amberley (YAMB) |
| Time | Latitude | Longitude | Altitude | Speed | Heading |
|---|---|---|---|---|---|
| 2026-04-26 20:13 | -22.24688 | 114.08468 | 46 ft | 0 kts | 5° |
| 2026-04-26 20:16 | -22.24685 | 114.08468 | 46 ft | 1 kts | 5° |
| 2026-04-26 20:16 | -22.24661 | 114.08473 | 46 ft | 3 kts | 30° |
| 2026-04-26 20:16 | -22.24651 | 114.08502 | 45 ft | 6 kts | 69° |
| 2026-04-26 20:17 | -22.24628 | 114.08553 | 45 ft | 9 kts | 57° |
| 2026-04-26 20:17 | -22.24611 | 114.08614 | 44 ft | 7 kts | 106° |
| 2026-04-26 20:17 | -22.24657 | 114.08643 | 43 ft | 8 kts | 172° |
| 2026-04-26 20:17 | -22.24696 | 114.08659 | 44 ft | 9 kts | 143° |
| 2026-04-26 20:18 | -22.24723 | 114.08717 | 43 ft | 0 kts | 94° |
| 2026-04-26 20:18 | -22.24724 | 114.08733 | 43 ft | 5 kts | 93° |
| 2026-04-26 20:18 | -22.24727 | 114.08802 | 40 ft | 12 kts | 93° |
| 2026-04-26 20:18 | -22.24700 | 114.08890 | 39 ft | 14 kts | 33° |
| 2026-04-26 20:19 | -22.24565 | 114.08914 | 37 ft | 40 kts | 1° |
| 2026-04-26 20:19 | -22.24019 | 114.08952 | 35 ft | 114 kts | 5° |
| 2026-04-26 20:19 | -22.23015 | 114.09029 | 49 ft | 170 kts | 5° |
| 2026-04-26 20:19 | -22.21756 | 114.09154 | 465 ft | 187 kts | 5° |
| 2026-04-26 20:20 | -22.20474 | 114.09261 | 1317 ft | 183 kts | 6° |
| 2026-04-26 20:20 | -22.19263 | 114.09329 | 2205 ft | 176 kts | 5° |
| 2026-04-26 20:20 | -22.18002 | 114.09392 | 2685 ft | 189 kts | 5° |
| 2026-04-26 20:20 | -22.16636 | 114.09462 | 3052 ft | 206 kts | 5° |
| 2026-04-26 20:21 | -22.15130 | 114.09544 | 3427 ft | 225 kts | 5° |
| 2026-04-26 20:21 | -22.13503 | 114.09636 | 3864 ft | 241 kts | 6° |
| 2026-04-26 20:21 | -22.11880 | 114.10007 | 4436 ft | 246 kts | 30° |
| 2026-04-26 20:21 | -22.10699 | 114.11345 | 5072 ft | 254 kts | 62° |
| 2026-04-26 20:22 | -22.10018 | 114.13075 | 5928 ft | 254 kts | 65° |
| 2026-04-26 20:22 | -22.09314 | 114.14806 | 6776 ft | 254 kts | 64° |
| 2026-04-26 20:22 | -22.08577 | 114.16557 | 7496 ft | 259 kts | 64° |
| 2026-04-26 20:22 | -22.07820 | 114.18326 | 8167 ft | 266 kts | 63° |
| 2026-04-26 20:23 | -22.07040 | 114.20129 | 8859 ft | 271 kts | 63° |
| 2026-04-26 20:23 | -22.06238 | 114.21972 | 9549 ft | 277 kts | 63° |
| 2026-04-26 20:23 | -22.05405 | 114.23878 | 10242 ft | 283 kts | 63° |
| 2026-04-26 20:23 | -22.04547 | 114.25830 | 10702 ft | 298 kts | 63° |
| 2026-04-26 20:24 | -22.03638 | 114.27896 | 11062 ft | 316 kts | 63° |
| 2026-04-26 20:24 | -22.02675 | 114.30079 | 11596 ft | 328 kts | 63° |
| 2026-04-26 20:24 | -22.01692 | 114.32313 | 12266 ft | 334 kts | 63° |
| 2026-04-26 20:24 | -22.00681 | 114.34608 | 12912 ft | 342 kts | 63° |
| 2026-04-26 20:25 | -21.99656 | 114.36933 | 13549 ft | 349 kts | 63° |
| 2026-04-26 20:25 | -21.98959 | 114.38514 | 13990 ft | 353 kts | 63° |
| 2026-04-26 20:25 | -21.97552 | 114.41708 | 14904 ft | 359 kts | 63° |
| 2026-04-26 20:25 | -21.96479 | 114.44138 | 15586 ft | 364 kts | 62° |
| 2026-04-26 20:26 | -21.95387 | 114.46611 | 16255 ft | 368 kts | 62° |
| 2026-04-26 20:26 | -21.94284 | 114.49101 | 16901 ft | 372 kts | 62° |
| 2026-04-26 20:26 | -21.93164 | 114.51631 | 17559 ft | 376 kts | 62° |
| 2026-04-26 20:26 | -21.92048 | 114.54155 | 18189 ft | 380 kts | 62° |
| 2026-04-26 20:27 | -21.90906 | 114.56736 | 18810 ft | 385 kts | 62° |
| 2026-04-26 20:27 | -21.89750 | 114.59344 | 19422 ft | 389 kts | 62° |
| 2026-04-26 20:27 | -21.88579 | 114.61984 | 20034 ft | 393 kts | 61° |
| 2026-04-26 20:27 | -21.87398 | 114.64647 | 20635 ft | 397 kts | 61° |
| 2026-04-26 20:28 | -21.86196 | 114.67353 | 21196 ft | 402 kts | 60° |
| 2026-04-26 20:28 | -21.84995 | 114.70054 | 21744 ft | 405 kts | 60° |
| 2026-04-26 20:28 | -21.83769 | 114.72813 | 22303 ft | 409 kts | 60° |
| 2026-04-26 20:28 | -21.82549 | 114.75555 | 22842 ft | 412 kts | 60° |
| 2026-04-26 20:29 | -21.81313 | 114.78336 | 23397 ft | 416 kts | 60° |
| 2026-04-26 20:29 | -21.80059 | 114.81152 | 23973 ft | 418 kts | 60° |
| 2026-04-26 20:29 | -21.78806 | 114.83965 | 24508 ft | 421 kts | 60° |
| 2026-04-26 20:29 | -21.77528 | 114.86832 | 25043 ft | 424 kts | 60° |
| 2026-04-26 20:30 | -21.76256 | 114.89687 | 25542 ft | 428 kts | 60° |
| 2026-04-26 20:30 | -21.74956 | 114.92597 | 26072 ft | 431 kts | 60° |
| 2026-04-26 20:30 | -21.73675 | 114.95468 | 26583 ft | 433 kts | 60° |
| 2026-04-26 20:30 | -21.72359 | 114.98421 | 27099 ft | 436 kts | 60° |
| 2026-04-26 20:31 | -21.71060 | 115.01328 | 27575 ft | 438 kts | 60° |
| 2026-04-26 20:31 | -21.69722 | 115.04323 | 28045 ft | 441 kts | 60° |
| 2026-04-26 20:31 | -21.68392 | 115.07293 | 28514 ft | 444 kts | 60° |
| 2026-04-26 20:31 | -21.67038 | 115.10262 | 29010 ft | 445 kts | 58° |
| 2026-04-26 20:32 | -21.65535 | 115.13176 | 29450 ft | 446 kts | 54° |
| 2026-04-26 20:32 | -21.63946 | 115.16009 | 29834 ft | 449 kts | 54° |
| 2026-04-26 20:32 | -21.62311 | 115.18893 | 30216 ft | 454 kts | 54° |
| 2026-04-26 20:32 | -21.60664 | 115.21794 | 30590 ft | 458 kts | 54° |
| 2026-04-26 20:33 | -21.59004 | 115.24719 | 30951 ft | 462 kts | 54° |
| 2026-04-26 20:33 | -21.57341 | 115.27657 | 31328 ft | 465 kts | 54° |
| 2026-04-26 20:33 | -21.55650 | 115.30643 | 31693 ft | 469 kts | 54° |
| 2026-04-26 20:33 | -21.53939 | 115.33664 | 32055 ft | 473 kts | 53° |
| 2026-04-26 20:34 | -21.52235 | 115.36674 | 32399 ft | 476 kts | 53° |
| 2026-04-26 20:34 | -21.50502 | 115.39732 | 32729 ft | 480 kts | 53° |
| 2026-04-26 20:34 | -21.48767 | 115.42787 | 33112 ft | 483 kts | 53° |
| 2026-04-26 20:34 | -21.47010 | 115.45882 | 33503 ft | 487 kts | 54° |
| 2026-04-26 20:35 | -21.45256 | 115.48971 | 33868 ft | 490 kts | 53° |
| 2026-04-26 20:35 | -21.43466 | 115.52121 | 34238 ft | 493 kts | 54° |
| 2026-04-26 20:35 | -21.41684 | 115.55254 | 34685 ft | 494 kts | 54° |
| 2026-04-26 20:35 | -21.39910 | 115.58381 | 35241 ft | 493 kts | 53° |
| 2026-04-26 20:36 | -21.38134 | 115.61510 | 35829 ft | 490 kts | 53° |
| 2026-04-26 20:36 | -21.36353 | 115.64642 | 36325 ft | 489 kts | 53° |
| 2026-04-26 20:36 | -21.34594 | 115.67728 | 36762 ft | 489 kts | 53° |
| 2026-04-26 20:36 | -21.32831 | 115.70820 | 37149 ft | 489 kts | 53° |
| 2026-04-26 20:37 | -21.31059 | 115.73923 | 37490 ft | 490 kts | 53° |
| 2026-04-26 20:37 | -21.29281 | 115.77040 | 37797 ft | 492 kts | 53° |
| 2026-04-26 20:37 | -21.27490 | 115.80179 | 38074 ft | 494 kts | 53° |
| 2026-04-26 20:37 | -21.25702 | 115.83306 | 38369 ft | 495 kts | 53° |
| 2026-04-26 20:38 | -21.23886 | 115.86481 | 38656 ft | 496 kts | 53° |
| 2026-04-26 20:38 | -21.22081 | 115.89635 | 38934 ft | 497 kts | 53° |
| 2026-04-26 20:38 | -21.20286 | 115.92770 | 38955 ft | 499 kts | 53° |
| 2026-04-26 20:39 | -21.16640 | 115.99139 | 38953 ft | 500 kts | 53° |
| 2026-04-26 20:39 | -21.13009 | 116.05476 | 38963 ft | 500 kts | 53° |
| 2026-04-26 20:40 | -21.09385 | 116.11796 | 38967 ft | 500 kts | 53° |
| 2026-04-26 20:40 | -21.05733 | 116.18149 | 38967 ft | 500 kts | 53° |
| 2026-04-26 20:41 | -21.02117 | 116.24434 | 38966 ft | 500 kts | 53° |
| 2026-04-26 20:41 | -20.98466 | 116.30772 | 38966 ft | 499 kts | 53° |
| 2026-04-26 20:42 | -20.94841 | 116.37060 | 38965 ft | 499 kts | 53° |
| 2026-04-26 20:42 | -20.91206 | 116.43358 | 38965 ft | 499 kts | 53° |
| 2026-04-26 20:43 | -20.87561 | 116.49673 | 38966 ft | 499 kts | 53° |
| 2026-04-26 20:43 | -20.83927 | 116.55956 | 38961 ft | 498 kts | 53° |
| 2026-04-26 20:44 | -20.80278 | 116.62260 | 38963 ft | 498 kts | 53° |
| 2026-04-26 20:44 | -20.76652 | 116.68542 | 38958 ft | 498 kts | 56° |
| 2026-04-26 20:45 | -20.73971 | 116.75368 | 38959 ft | 507 kts | 72° |
| 2026-04-26 20:45 | -20.73043 | 116.82842 | 38957 ft | 513 kts | 88° |
| 2026-04-26 20:46 | -20.73948 | 116.90420 | 38963 ft | 516 kts | 101° |
| 2026-04-26 20:46 | -20.75513 | 116.97895 | 38959 ft | 516 kts | 102° |
| 2026-04-26 20:47 | -20.77059 | 117.05340 | 38960 ft | 516 kts | 101° |
| 2026-04-26 20:47 | -20.78575 | 117.12864 | 38960 ft | 516 kts | 101° |
| 2026-04-26 20:48 | -20.80057 | 117.20323 | 38962 ft | 515 kts | 102° |
| 2026-04-26 20:48 | -20.81536 | 117.27803 | 38962 ft | 516 kts | 101° |
| 2026-04-26 20:49 | -20.83005 | 117.35260 | 38965 ft | 515 kts | 101° |
| 2026-04-26 20:49 | -20.84471 | 117.42717 | 38964 ft | 515 kts | 101° |
| 2026-04-26 20:50 | -20.85944 | 117.50229 | 38965 ft | 515 kts | 102° |
| 2026-04-26 20:50 | -20.87399 | 117.57671 | 38961 ft | 515 kts | 102° |
| 2026-04-26 20:51 | -20.88858 | 117.65144 | 38974 ft | 514 kts | 101° |
| 2026-04-26 20:51 | -20.90315 | 117.72622 | 38968 ft | 515 kts | 101° |
| 2026-04-26 20:52 | -20.91764 | 117.80084 | 38979 ft | 516 kts | 102° |
| 2026-04-26 20:52 | -20.93214 | 117.87573 | 38974 ft | 516 kts | 102° |
| 2026-04-26 20:53 | -20.94668 | 117.95091 | 38977 ft | 516 kts | 102° |
| 2026-04-26 20:53 | -20.96107 | 118.02551 | 38981 ft | 515 kts | 102° |
| 2026-04-26 20:54 | -20.97553 | 118.10060 | 38981 ft | 514 kts | 102° |
| 2026-04-26 20:54 | -20.98986 | 118.17528 | 38974 ft | 514 kts | 102° |
| 2026-04-26 20:55 | -21.00410 | 118.24972 | 38981 ft | 513 kts | 102° |
| 2026-04-26 20:55 | -21.01833 | 118.32423 | 38981 ft | 513 kts | 102° |
| 2026-04-26 20:56 | -21.03248 | 118.39858 | 38980 ft | 513 kts | 102° |
| 2026-04-26 20:56 | -21.04664 | 118.47313 | 38978 ft | 512 kts | 102° |
| 2026-04-26 20:57 | -21.06078 | 118.54770 | 38978 ft | 512 kts | 102° |
| 2026-04-26 20:57 | -21.07488 | 118.62225 | 38979 ft | 512 kts | 102° |
| 2026-04-26 20:58 | -21.08895 | 118.69688 | 38979 ft | 512 kts | 102° |
| 2026-04-26 20:58 | -21.10301 | 118.77173 | 38982 ft | 512 kts | 102° |
| 2026-04-26 20:59 | -21.11692 | 118.84575 | 38986 ft | 512 kts | 102° |
| 2026-04-26 20:59 | -21.13094 | 118.92072 | 38992 ft | 512 kts | 102° |
| 2026-04-26 21:00 | -21.14481 | 118.99505 | 38993 ft | 511 kts | 102° |
| 2026-04-26 21:00 | -21.15869 | 119.06954 | 38992 ft | 511 kts | 102° |
| 2026-04-26 21:01 | -21.17250 | 119.14384 | 38989 ft | 510 kts | 102° |
| 2026-04-26 21:01 | -21.18624 | 119.21809 | 38986 ft | 509 kts | 102° |
| 2026-04-26 21:02 | -21.19992 | 119.29216 | 38993 ft | 510 kts | 102° |
| 2026-04-26 21:02 | -21.21364 | 119.36661 | 39003 ft | 510 kts | 102° |
| 2026-04-26 21:03 | -21.22729 | 119.44088 | 39016 ft | 510 kts | 102° |
| 2026-04-26 21:03 | -21.24099 | 119.51558 | 39023 ft | 510 kts | 102° |
| 2026-04-26 21:04 | -21.25457 | 119.58993 | 39027 ft | 510 kts | 102° |
| 2026-04-26 21:04 | -21.26813 | 119.66421 | 39027 ft | 509 kts | 102° |
| 2026-04-26 21:05 | -21.28165 | 119.73840 | 39028 ft | 510 kts | 102° |
| 2026-04-26 21:05 | -21.29517 | 119.81292 | 39027 ft | 510 kts | 102° |
| 2026-04-26 21:06 | -21.30859 | 119.88709 | 39030 ft | 509 kts | 102° |
| 2026-04-26 21:06 | -21.32204 | 119.96163 | 39030 ft | 509 kts | 102° |
| 2026-04-26 21:07 | -21.33542 | 120.03597 | 39026 ft | 508 kts | 102° |
| 2026-04-26 21:07 | -21.34869 | 120.10996 | 39038 ft | 509 kts | 102° |
| 2026-04-26 21:08 | -21.36205 | 120.18459 | 39028 ft | 509 kts | 102° |
| 2026-04-26 21:08 | -21.37531 | 120.25882 | 39020 ft | 508 kts | 102° |
| 2026-04-26 21:09 | -21.38851 | 120.33304 | 39021 ft | 508 kts | 102° |
| 2026-04-26 21:09 | -21.40166 | 120.40713 | 39022 ft | 508 kts | 102° |
| 2026-04-26 21:10 | -21.41476 | 120.48102 | 39021 ft | 506 kts | 102° |
| 2026-04-26 21:10 | -21.42787 | 120.55523 | 39024 ft | 506 kts | 102° |
| 2026-04-26 21:11 | -21.44087 | 120.62910 | 39029 ft | 506 kts | 102° |
| 2026-04-26 21:11 | -21.45392 | 120.70335 | 39024 ft | 506 kts | 102° |
| 2026-04-26 21:12 | -21.46688 | 120.77742 | 39030 ft | 507 kts | 102° |
| 2026-04-26 21:12 | -21.47977 | 120.85118 | 39035 ft | 507 kts | 102° |
| 2026-04-26 21:13 | -21.49278 | 120.92579 | 39033 ft | 506 kts | 102° |
| 2026-04-26 21:13 | -21.50565 | 120.99972 | 39031 ft | 506 kts | 102° |
| 2026-04-26 21:14 | -21.51846 | 121.07367 | 39028 ft | 507 kts | 102° |
| 2026-04-26 21:14 | -21.53123 | 121.14764 | 39031 ft | 507 kts | 102° |
| 2026-04-26 21:15 | -21.54402 | 121.22182 | 39032 ft | 506 kts | 102° |
| 2026-04-26 21:15 | -21.55675 | 121.29600 | 39036 ft | 506 kts | 102° |
| 2026-04-26 21:16 | -21.56949 | 121.37025 | 39037 ft | 505 kts | 102° |
| 2026-04-26 21:16 | -21.58216 | 121.44439 | 39033 ft | 505 kts | 102° |
| 2026-04-26 21:17 | -21.59478 | 121.51833 | 39035 ft | 507 kts | 102° |
| 2026-04-26 21:17 | -21.60745 | 121.59283 | 39037 ft | 507 kts | 102° |
| 2026-04-26 21:18 | -21.62003 | 121.66713 | 39034 ft | 509 kts | 102° |
| 2026-04-26 21:18 | -21.63269 | 121.74190 | 39036 ft | 509 kts | 102° |
| 2026-04-26 21:19 | -21.64525 | 121.81643 | 39036 ft | 509 kts | 102° |
| 2026-04-26 21:19 | -21.65780 | 121.89108 | 39037 ft | 508 kts | 102° |
| 2026-04-26 21:20 | -21.67022 | 121.96532 | 39039 ft | 509 kts | 102° |
| 2026-04-26 21:20 | -21.68273 | 122.04013 | 39038 ft | 509 kts | 102° |
| 2026-04-26 21:21 | -21.69516 | 122.11468 | 39035 ft | 509 kts | 102° |
| 2026-04-26 21:21 | -21.70757 | 122.18942 | 39037 ft | 509 kts | 102° |
| 2026-04-26 21:22 | -21.72212 | 122.26401 | 39039 ft | 509 kts | 105° |
| 2026-04-26 21:22 | -21.73796 | 122.33785 | 39042 ft | 509 kts | 106° |
| 2026-04-26 21:23 | -21.76172 | 122.44903 | 39041 ft | 510 kts | 106° |
| 2026-04-26 21:23 | -21.77739 | 122.52296 | 39038 ft | 510 kts | 106° |
| 2026-04-26 21:24 | -21.79304 | 122.59704 | 39038 ft | 510 kts | 106° |
| 2026-04-26 21:24 | -21.80873 | 122.67149 | 39032 ft | 510 kts | 106° |
| 2026-04-26 21:25 | -21.82424 | 122.74528 | 39034 ft | 510 kts | 106° |
| 2026-04-26 21:25 | -21.83989 | 122.81976 | 39034 ft | 512 kts | 106° |
| 2026-04-26 21:26 | -21.85547 | 122.89425 | 39038 ft | 511 kts | 106° |
| 2026-04-26 21:26 | -21.87095 | 122.96847 | 39036 ft | 511 kts | 106° |
| 2026-04-26 21:27 | -21.88651 | 123.04311 | 39045 ft | 512 kts | 106° |
| 2026-04-26 21:27 | -21.90195 | 123.11748 | 39055 ft | 512 kts | 106° |
| 2026-04-26 21:28 | -21.91749 | 123.19228 | 39058 ft | 512 kts | 106° |
| 2026-04-26 21:28 | -21.93290 | 123.26678 | 39057 ft | 512 kts | 106° |
| 2026-04-26 21:29 | -21.94823 | 123.34124 | 39059 ft | 512 kts | 106° |
| 2026-04-26 21:29 | -21.96361 | 123.41592 | 39060 ft | 512 kts | 106° |
| 2026-04-26 21:30 | -21.97899 | 123.49084 | 39060 ft | 512 kts | 107° |
| 2026-04-26 21:30 | -21.99426 | 123.56535 | 39060 ft | 512 kts | 107° |
| 2026-04-26 21:31 | -22.00945 | 123.63982 | 39059 ft | 511 kts | 107° |
| 2026-04-26 21:31 | -22.02482 | 123.71505 | 39060 ft | 513 kts | 106° |
| 2026-04-26 21:32 | -22.03999 | 123.78970 | 39061 ft | 512 kts | 106° |
| 2026-04-26 21:32 | -22.05512 | 123.86432 | 39061 ft | 513 kts | 106° |
| 2026-04-26 21:33 | -22.07024 | 123.93917 | 39061 ft | 512 kts | 106° |
| 2026-04-26 21:33 | -22.08539 | 124.01428 | 39064 ft | 512 kts | 106° |
| 2026-04-26 21:34 | -22.10048 | 124.08916 | 39063 ft | 513 kts | 106° |
| 2026-04-26 21:34 | -22.11558 | 124.16434 | 39063 ft | 513 kts | 107° |
| 2026-04-26 21:35 | -22.13066 | 124.23954 | 39067 ft | 513 kts | 106° |
| 2026-04-26 21:35 | -22.14559 | 124.31435 | 39072 ft | 512 kts | 106° |
| 2026-04-26 21:36 | -22.15799 | 124.37653 | 39071 ft | 512 kts | 106° |
| 2026-04-26 21:36 | -22.17534 | 124.46385 | 39077 ft | 511 kts | 107° |
| 2026-04-26 21:37 | -22.19030 | 124.53918 | 39082 ft | 512 kts | 106° |
| 2026-04-26 21:37 | -22.20504 | 124.61369 | 39080 ft | 511 kts | 107° |
| 2026-04-26 21:38 | -22.21986 | 124.68883 | 39076 ft | 511 kts | 106° |
| 2026-04-26 21:38 | -22.23464 | 124.76377 | 39083 ft | 512 kts | 106° |
| 2026-04-26 21:39 | -22.24925 | 124.83826 | 39080 ft | 512 kts | 106° |
| 2026-04-26 21:39 | -22.26388 | 124.91305 | 39084 ft | 510 kts | 107° |
| 2026-04-26 21:40 | -22.27849 | 124.98782 | 39083 ft | 510 kts | 106° |
| 2026-04-26 21:40 | -22.29306 | 125.06258 | 39089 ft | 509 kts | 107° |
| 2026-04-26 21:41 | -22.30757 | 125.13721 | 39080 ft | 510 kts | 106° |
| 2026-04-26 21:41 | -22.32204 | 125.21188 | 39088 ft | 509 kts | 107° |
| 2026-04-26 21:42 | -22.33645 | 125.28643 | 39086 ft | 509 kts | 106° |
| 2026-04-26 21:42 | -22.35083 | 125.36101 | 39087 ft | 509 kts | 106° |
| 2026-04-26 21:43 | -22.36519 | 125.43556 | 39091 ft | 508 kts | 106° |
| 2026-04-26 21:43 | -22.37953 | 125.51035 | 39080 ft | 509 kts | 106° |
| 2026-04-26 21:44 | -22.39379 | 125.58501 | 39090 ft | 508 kts | 106° |
| 2026-04-26 21:44 | -22.40804 | 125.65973 | 39092 ft | 507 kts | 106° |
| 2026-04-26 21:45 | -22.42220 | 125.73407 | 39090 ft | 508 kts | 106° |
| 2026-04-26 21:45 | -22.43638 | 125.80859 | 39085 ft | 508 kts | 106° |
| 2026-04-26 21:46 | -22.45044 | 125.88282 | 39092 ft | 508 kts | 106° |
| 2026-04-26 21:46 | -22.46459 | 125.95782 | 39090 ft | 509 kts | 106° |
| 2026-04-26 21:47 | -22.47862 | 126.03241 | 39088 ft | 508 kts | 107° |
| 2026-04-26 21:47 | -22.49262 | 126.10689 | 39087 ft | 506 kts | 106° |
| 2026-04-26 21:48 | -22.50654 | 126.18113 | 39095 ft | 506 kts | 106° |
| 2026-04-26 21:48 | -22.52044 | 126.25551 | 39095 ft | 506 kts | 106° |
| 2026-04-26 21:49 | -22.53427 | 126.32974 | 39094 ft | 505 kts | 106° |
| 2026-04-26 21:49 | -22.54805 | 126.40395 | 39096 ft | 506 kts | 106° |
| 2026-04-26 21:50 | -22.55951 | 126.46587 | 39102 ft | 505 kts | 106° |
| 2026-04-26 21:50 | -22.57556 | 126.55261 | 39101 ft | 505 kts | 107° |
| 2026-04-26 21:51 | -22.58929 | 126.62711 | 39102 ft | 504 kts | 107° |
| 2026-04-26 21:51 | -22.60290 | 126.70105 | 39101 ft | 505 kts | 106° |
| 2026-04-26 21:52 | -22.61656 | 126.77548 | 39104 ft | 505 kts | 106° |
| 2026-04-26 21:52 | -22.63011 | 126.84969 | 39105 ft | 505 kts | 106° |
| 2026-04-26 21:53 | -22.64368 | 126.92409 | 39111 ft | 504 kts | 106° |
| 2026-04-26 21:53 | -22.65716 | 126.99830 | 39110 ft | 503 kts | 106° |
| 2026-04-26 21:54 | -22.67059 | 127.07235 | 39110 ft | 503 kts | 106° |
| 2026-04-26 21:54 | -22.68400 | 127.14642 | 39118 ft | 504 kts | 106° |
| 2026-04-26 21:55 | -22.69743 | 127.22089 | 39120 ft | 504 kts | 106° |
| 2026-04-26 21:55 | -22.71074 | 127.29491 | 39122 ft | 503 kts | 106° |
| 2026-04-26 21:56 | -22.72407 | 127.36927 | 39123 ft | 503 kts | 106° |
| 2026-04-26 21:56 | -22.73738 | 127.44356 | 39125 ft | 504 kts | 106° |
| 2026-04-26 21:57 | -22.75061 | 127.51769 | 39124 ft | 505 kts | 106° |
| 2026-04-26 21:57 | -22.76382 | 127.59201 | 39134 ft | 504 kts | 106° |
| 2026-04-26 21:58 | -22.77709 | 127.66683 | 39125 ft | 504 kts | 105° |
| 2026-04-26 21:58 | -22.79024 | 127.74120 | 39129 ft | 504 kts | 105° |
| 2026-04-26 21:59 | -22.80337 | 127.81561 | 39132 ft | 504 kts | 105° |
| 2026-04-26 21:59 | -22.81637 | 127.88959 | 39132 ft | 503 kts | 105° |
| 2026-04-26 22:00 | -22.82939 | 127.96378 | 39134 ft | 503 kts | 105° |
| 2026-04-26 22:00 | -22.84243 | 128.03844 | 39131 ft | 503 kts | 106° |
| 2026-04-26 22:01 | -22.85531 | 128.11221 | 39141 ft | 503 kts | 105° |
| 2026-04-26 22:01 | -22.86820 | 128.18649 | 39140 ft | 502 kts | 106° |
| 2026-04-26 22:02 | -22.88114 | 128.26096 | 39142 ft | 502 kts | 106° |
| 2026-04-26 22:02 | -22.89394 | 128.33498 | 39140 ft | 502 kts | 105° |
| 2026-04-26 22:03 | -22.90676 | 128.40945 | 39142 ft | 503 kts | 106° |
| 2026-04-26 22:03 | -22.91952 | 128.48364 | 39138 ft | 503 kts | 106° |
| 2026-04-26 22:04 | -22.93223 | 128.55783 | 39147 ft | 503 kts | 106° |
| 2026-04-26 22:04 | -22.94497 | 128.63240 | 39149 ft | 501 kts | 106° |
| 2026-04-26 22:05 | -22.95764 | 128.70670 | 39141 ft | 501 kts | 106° |
| 2026-04-26 22:05 | -22.97017 | 128.78040 | 39148 ft | 500 kts | 105° |
| 2026-04-26 22:06 | -22.98269 | 128.85440 | 39157 ft | 499 kts | 105° |
| 2026-04-26 22:06 | -22.99556 | 128.92824 | 39157 ft | 498 kts | 106° |
| 2026-04-26 22:07 | -23.00873 | 129.00188 | 39153 ft | 500 kts | 107° |
| 2026-04-26 22:07 | -23.02190 | 129.07593 | 39158 ft | 501 kts | 107° |
| 2026-04-26 22:08 | -23.03506 | 129.15037 | 39165 ft | 502 kts | 107° |
| 2026-04-26 22:08 | -23.04806 | 129.22429 | 39168 ft | 501 kts | 107° |
| 2026-04-26 22:09 | -23.06109 | 129.29849 | 39171 ft | 501 kts | 107° |
| 2026-04-26 22:09 | -23.07401 | 129.37231 | 39169 ft | 501 kts | 107° |
| 2026-04-26 22:10 | -23.08698 | 129.44661 | 39166 ft | 500 kts | 107° |
| 2026-04-26 22:10 | -23.09987 | 129.52072 | 39157 ft | 500 kts | 107° |
| 2026-04-26 22:11 | -23.11266 | 129.59451 | 39154 ft | 499 kts | 107° |
| 2026-04-26 22:11 | -23.12541 | 129.66817 | 39151 ft | 499 kts | 107° |
| 2026-04-26 22:12 | -23.13818 | 129.74220 | 39152 ft | 498 kts | 107° |
| 2026-04-26 22:12 | -23.15085 | 129.81583 | 39154 ft | 499 kts | 107° |
| 2026-04-26 22:13 | -23.16351 | 129.88968 | 39156 ft | 498 kts | 107° |
| 2026-04-26 22:13 | -23.17619 | 129.96364 | 39153 ft | 499 kts | 106° |
| 2026-04-26 22:14 | -23.18881 | 130.03780 | 39157 ft | 499 kts | 107° |
| 2026-04-26 22:14 | -23.20136 | 130.11162 | 39166 ft | 500 kts | 107° |
| 2026-04-26 22:15 | -23.21394 | 130.18591 | 39174 ft | 499 kts | 107° |
| 2026-04-26 22:15 | -23.22637 | 130.25951 | 39178 ft | 498 kts | 107° |
| 2026-04-26 22:16 | -23.23891 | 130.33382 | 39181 ft | 498 kts | 107° |
| 2026-04-26 22:16 | -23.25124 | 130.40730 | 39187 ft | 495 kts | 107° |
| 2026-04-26 22:17 | -23.26352 | 130.48051 | 39186 ft | 495 kts | 107° |
| 2026-04-26 22:17 | -23.27581 | 130.55405 | 39188 ft | 493 kts | 107° |
| 2026-04-26 22:18 | -23.28798 | 130.62721 | 39183 ft | 493 kts | 107° |
| 2026-04-26 22:18 | -23.30013 | 130.70033 | 39177 ft | 492 kts | 107° |
| 2026-04-26 22:19 | -23.31225 | 130.77353 | 39185 ft | 492 kts | 107° |
| 2026-04-26 22:19 | -23.32456 | 130.84776 | 39187 ft | 506 kts | 107° |
| 2026-04-26 22:20 | -23.33707 | 130.92363 | 39195 ft | 512 kts | 107° |
| 2026-04-26 22:20 | -23.34953 | 130.99980 | 39191 ft | 513 kts | 107° |
| 2026-04-26 22:21 | -23.36193 | 131.07588 | 39195 ft | 511 kts | 107° |
| 2026-04-26 22:21 | -23.37428 | 131.15163 | 39193 ft | 511 kts | 107° |
| 2026-04-26 22:22 | -23.38659 | 131.22759 | 39186 ft | 511 kts | 107° |
| 2026-04-26 22:22 | -23.39889 | 131.30354 | 39191 ft | 512 kts | 107° |
| 2026-04-26 22:23 | -23.41130 | 131.38025 | 39200 ft | 514 kts | 107° |
| 2026-04-26 22:23 | -23.42362 | 131.45665 | 39202 ft | 515 kts | 107° |
| 2026-04-26 22:24 | -23.43586 | 131.53301 | 39204 ft | 514 kts | 108° |
| 2026-04-26 22:24 | -23.44801 | 131.60916 | 39210 ft | 513 kts | 107° |
| 2026-04-26 22:25 | -23.46021 | 131.68568 | 39222 ft | 512 kts | 107° |
| 2026-04-26 22:25 | -23.47236 | 131.76207 | 39236 ft | 512 kts | 107° |
| 2026-04-26 22:26 | -23.48440 | 131.83820 | 39241 ft | 511 kts | 107° |
| 2026-04-26 22:26 | -23.49640 | 131.91411 | 39232 ft | 512 kts | 107° |
| 2026-04-26 22:27 | -23.50844 | 131.99059 | 39224 ft | 512 kts | 107° |
| 2026-04-26 22:27 | -23.52031 | 132.06641 | 39220 ft | 510 kts | 107° |
| 2026-04-26 22:28 | -23.53220 | 132.14249 | 39219 ft | 510 kts | 107° |
| 2026-04-26 22:28 | -23.54406 | 132.21848 | 39225 ft | 511 kts | 107° |
| 2026-04-26 22:29 | -23.55580 | 132.29423 | 39224 ft | 509 kts | 107° |
| 2026-04-26 22:29 | -23.56758 | 132.37033 | 39222 ft | 510 kts | 108° |
| 2026-04-26 22:30 | -23.57928 | 132.44615 | 39228 ft | 510 kts | 108° |
| 2026-04-26 22:30 | -23.59096 | 132.52219 | 39226 ft | 508 kts | 108° |
| 2026-04-26 22:31 | -23.60260 | 132.59805 | 39227 ft | 509 kts | 108° |
| 2026-04-26 22:31 | -23.61416 | 132.67384 | 39223 ft | 508 kts | 108° |
| 2026-04-26 22:32 | -23.62571 | 132.74974 | 39226 ft | 508 kts | 108° |
| 2026-04-26 22:32 | -23.63717 | 132.82524 | 39226 ft | 508 kts | 108° |
| 2026-04-26 22:33 | -23.65433 | 132.93886 | 39227 ft | 505 kts | 108° |
| 2026-04-26 22:34 | -23.66569 | 133.01437 | 39224 ft | 508 kts | 108° |
| 2026-04-26 22:34 | -23.67705 | 133.09004 | 39228 ft | 507 kts | 108° |
| 2026-04-26 22:35 | -23.68838 | 133.16599 | 39225 ft | 507 kts | 108° |
| 2026-04-26 22:35 | -23.69956 | 133.24110 | 39223 ft | 506 kts | 108° |
| 2026-04-26 22:36 | -23.71085 | 133.31691 | 39222 ft | 507 kts | 108° |
| 2026-04-26 22:36 | -23.72199 | 133.39250 | 39218 ft | 505 kts | 108° |
| 2026-04-26 22:37 | -23.73309 | 133.46786 | 39213 ft | 504 kts | 108° |
| 2026-04-26 22:37 | -23.74420 | 133.54330 | 39209 ft | 505 kts | 108° |
| 2026-04-26 22:38 | -23.75526 | 133.61902 | 39207 ft | 505 kts | 108° |
| 2026-04-26 22:38 | -23.76620 | 133.69409 | 39203 ft | 504 kts | 108° |
| 2026-04-26 22:39 | -23.77719 | 133.76967 | 39200 ft | 505 kts | 108° |
| 2026-04-26 22:39 | -23.78815 | 133.84547 | 39184 ft | 504 kts | 108° |
| 2026-04-26 22:40 | -23.80260 | 133.91954 | 39171 ft | 496 kts | 114° |
| 2026-04-26 22:40 | -23.82000 | 133.99216 | 39171 ft | 496 kts | 114° |
| 2026-04-26 22:41 | -23.83747 | 134.06465 | 39200 ft | 496 kts | 114° |
| 2026-04-26 22:41 | -23.85490 | 134.13742 | 39210 ft | 497 kts | 114° |
| 2026-04-26 22:42 | -23.87219 | 134.21007 | 39182 ft | 496 kts | 114° |
| 2026-04-26 22:42 | -23.88956 | 134.28326 | 39179 ft | 497 kts | 113° |
| 2026-04-26 22:43 | -23.90676 | 134.35593 | 39184 ft | 498 kts | 113° |
| 2026-04-26 22:43 | -23.92408 | 134.42917 | 39182 ft | 497 kts | 113° |
| 2026-04-26 22:44 | -23.94125 | 134.50212 | 39178 ft | 497 kts | 113° |
| 2026-04-26 22:44 | -23.95842 | 134.57509 | 39179 ft | 498 kts | 113° |
| 2026-04-26 22:45 | -23.97557 | 134.64812 | 39178 ft | 499 kts | 112° |
| 2026-04-26 22:45 | -23.99278 | 134.72172 | 39169 ft | 499 kts | 112° |
| 2026-04-26 22:46 | -24.00985 | 134.79488 | 39169 ft | 500 kts | 112° |
| 2026-04-26 22:46 | -24.02705 | 134.86871 | 39171 ft | 498 kts | 112° |
| 2026-04-26 22:47 | -24.04402 | 134.94163 | 39168 ft | 500 kts | 112° |
| 2026-04-26 22:47 | -24.06113 | 135.01538 | 39173 ft | 502 kts | 111° |
| 2026-04-26 22:48 | -24.07812 | 135.08887 | 39184 ft | 500 kts | 111° |
| 2026-04-26 22:48 | -24.09524 | 135.16281 | 39177 ft | 501 kts | 111° |
| 2026-04-26 22:49 | -24.11215 | 135.23647 | 39185 ft | 499 kts | 110° |
| 2026-04-26 22:49 | -24.12908 | 135.31012 | 39192 ft | 500 kts | 110° |
| 2026-04-26 22:50 | -24.14588 | 135.38333 | 39179 ft | 499 kts | 110° |
| 2026-04-26 22:50 | -24.16273 | 135.45711 | 39178 ft | 499 kts | 110° |
| 2026-04-26 22:51 | -24.17944 | 135.53033 | 39171 ft | 499 kts | 109° |
| 2026-04-26 22:51 | -24.19624 | 135.60420 | 39175 ft | 499 kts | 109° |
| 2026-04-26 22:52 | -24.21299 | 135.67776 | 39181 ft | 499 kts | 108° |
| 2026-04-26 22:52 | -24.22961 | 135.75122 | 39181 ft | 499 kts | 108° |
| 2026-04-26 22:53 | -24.24624 | 135.82492 | 39169 ft | 498 kts | 108° |
| 2026-04-26 22:53 | -24.26282 | 135.89844 | 39174 ft | 499 kts | 108° |
| 2026-04-26 22:54 | -24.27933 | 135.97186 | 39178 ft | 498 kts | 107° |
| 2026-04-26 22:54 | -24.29585 | 136.04542 | 39173 ft | 498 kts | 107° |
| 2026-04-26 22:55 | -24.31224 | 136.11879 | 39174 ft | 498 kts | 107° |
| 2026-04-26 22:55 | -24.32873 | 136.19264 | 39166 ft | 498 kts | 107° |
| 2026-04-26 22:56 | -24.34510 | 136.26608 | 39161 ft | 499 kts | 106° |
| 2026-04-26 22:56 | -24.36144 | 136.33972 | 39149 ft | 499 kts | 107° |
| 2026-04-26 22:57 | -24.37787 | 136.41386 | 39169 ft | 499 kts | 106° |
| 2026-04-26 22:57 | -24.39416 | 136.48746 | 39158 ft | 499 kts | 106° |
| 2026-04-26 22:58 | -24.41040 | 136.56119 | 39164 ft | 500 kts | 106° |
| 2026-04-26 22:58 | -24.42672 | 136.63538 | 39163 ft | 500 kts | 105° |
| 2026-04-26 22:59 | -24.44288 | 136.70897 | 39159 ft | 499 kts | 105° |
| 2026-04-26 22:59 | -24.45903 | 136.78284 | 39164 ft | 499 kts | 105° |
| 2026-04-26 23:00 | -24.47517 | 136.85698 | 39155 ft | 499 kts | 105° |
| 2026-04-26 23:00 | -24.49124 | 136.93089 | 39156 ft | 497 kts | 104° |
| 2026-04-26 23:01 | -24.50712 | 137.00427 | 39151 ft | 497 kts | 104° |
| 2026-04-26 23:01 | -24.52305 | 137.07793 | 39149 ft | 497 kts | 104° |
| 2026-04-26 23:02 | -24.53887 | 137.15137 | 39147 ft | 497 kts | 104° |
| 2026-04-26 23:02 | -24.55475 | 137.22525 | 39144 ft | 497 kts | 104° |
| 2026-04-26 23:03 | -24.57051 | 137.29875 | 39145 ft | 497 kts | 104° |
| 2026-04-26 23:03 | -24.58638 | 137.37297 | 39387 ft | 500 kts | 104° |
| 2026-04-26 23:03 | -24.59419 | 137.40959 | 39791 ft | 498 kts | 104° |
| 2026-04-26 23:04 | -24.60208 | 137.44665 | 40202 ft | 497 kts | 105° |
| 2026-04-26 23:04 | -24.60992 | 137.48355 | 40563 ft | 496 kts | 105° |
| 2026-04-26 23:04 | -24.61773 | 137.52025 | 40862 ft | 496 kts | 105° |
| 2026-04-26 23:04 | -24.62556 | 137.55708 | 41122 ft | 496 kts | 105° |
| 2026-04-26 23:05 | -24.63334 | 137.59370 | 41142 ft | 496 kts | 105° |
| 2026-04-26 23:05 | -24.64902 | 137.66774 | 41143 ft | 496 kts | 105° |
| 2026-04-26 23:06 | -24.66464 | 137.74161 | 41141 ft | 497 kts | 105° |
| 2026-04-26 23:06 | -24.68010 | 137.81496 | 41140 ft | 497 kts | 105° |
| 2026-04-26 23:07 | -24.69562 | 137.88890 | 41138 ft | 497 kts | 105° |
| 2026-04-26 23:07 | -24.71109 | 137.96271 | 41140 ft | 498 kts | 104° |
| 2026-04-26 23:08 | -24.72655 | 138.03670 | 41138 ft | 497 kts | 104° |
| 2026-04-26 23:08 | -24.74197 | 138.11069 | 41138 ft | 497 kts | 105° |
| 2026-04-26 23:09 | -24.75732 | 138.18457 | 41137 ft | 496 kts | 105° |
| 2026-04-26 23:09 | -24.77262 | 138.25839 | 41137 ft | 496 kts | 105° |
| 2026-04-26 23:10 | -24.78781 | 138.33185 | 41139 ft | 496 kts | 105° |
| 2026-04-26 23:10 | -24.80313 | 138.40613 | 41136 ft | 497 kts | 105° |
| 2026-04-26 23:11 | -24.81830 | 138.47986 | 41138 ft | 498 kts | 105° |
| 2026-04-26 23:11 | -24.83348 | 138.55389 | 41136 ft | 498 kts | 105° |
| 2026-04-26 23:12 | -24.84866 | 138.62805 | 41136 ft | 498 kts | 105° |
| 2026-04-26 23:12 | -24.86379 | 138.70219 | 41133 ft | 497 kts | 104° |
| 2026-04-26 23:13 | -24.87889 | 138.77640 | 41137 ft | 497 kts | 105° |
| 2026-04-26 23:13 | -24.89395 | 138.85059 | 41136 ft | 497 kts | 105° |
| 2026-04-26 23:14 | -24.90892 | 138.92456 | 41136 ft | 497 kts | 105° |
| 2026-04-26 23:14 | -24.92393 | 138.99890 | 41134 ft | 498 kts | 105° |
| 2026-04-26 23:15 | -24.93881 | 139.07280 | 41135 ft | 498 kts | 105° |
| 2026-04-26 23:15 | -24.95373 | 139.14708 | 41135 ft | 498 kts | 105° |
| 2026-04-26 23:16 | -24.96862 | 139.22142 | 41135 ft | 498 kts | 105° |
| 2026-04-26 23:16 | -24.98350 | 139.29594 | 41141 ft | 498 kts | 105° |
| 2026-04-26 23:17 | -24.99824 | 139.36993 | 41140 ft | 498 kts | 105° |
| 2026-04-26 23:17 | -25.01310 | 139.44472 | 41143 ft | 498 kts | 105° |
| 2026-04-26 23:18 | -25.02778 | 139.51888 | 41145 ft | 498 kts | 105° |
| 2026-04-26 23:18 | -25.04249 | 139.59335 | 41145 ft | 499 kts | 105° |
| 2026-04-26 23:19 | -25.05722 | 139.66808 | 41147 ft | 499 kts | 105° |
| 2026-04-26 23:19 | -25.07191 | 139.74291 | 41152 ft | 500 kts | 105° |
| 2026-04-26 23:20 | -25.08655 | 139.81764 | 41166 ft | 500 kts | 105° |
| 2026-04-26 23:20 | -25.10111 | 139.89215 | 41171 ft | 500 kts | 105° |
| 2026-04-26 23:21 | -25.11570 | 139.96710 | 41160 ft | 499 kts | 105° |
| 2026-04-26 23:21 | -25.13025 | 140.04195 | 41161 ft | 499 kts | 105° |
| 2026-04-26 23:22 | -25.14467 | 140.11642 | 41158 ft | 500 kts | 105° |
| 2026-04-26 23:22 | -25.15912 | 140.19124 | 41160 ft | 500 kts | 105° |
| 2026-04-26 23:23 | -25.17350 | 140.26594 | 41158 ft | 501 kts | 105° |
| 2026-04-26 23:23 | -25.18791 | 140.34093 | 41158 ft | 500 kts | 105° |
| 2026-04-26 23:24 | -25.20227 | 140.41592 | 41157 ft | 500 kts | 105° |
| 2026-04-26 23:24 | -25.21664 | 140.49114 | 41158 ft | 501 kts | 105° |
| 2026-04-26 23:25 | -25.23090 | 140.56601 | 41155 ft | 501 kts | 105° |
| 2026-04-26 23:25 | -25.24521 | 140.64145 | 41159 ft | 502 kts | 105° |
| 2026-04-26 23:26 | -25.25944 | 140.71657 | 41160 ft | 502 kts | 105° |
| 2026-04-26 23:26 | -25.27370 | 140.79219 | 41160 ft | 502 kts | 105° |
| 2026-04-26 23:27 | -25.28780 | 140.86711 | 41163 ft | 502 kts | 105° |
| 2026-04-26 23:27 | -25.30197 | 140.94257 | 41162 ft | 502 kts | 105° |
| 2026-04-26 23:28 | -25.31609 | 141.01807 | 41162 ft | 502 kts | 105° |
| 2026-04-26 23:28 | -25.33009 | 141.09312 | 41165 ft | 502 kts | 106° |
| 2026-04-26 23:29 | -25.34411 | 141.16853 | 41164 ft | 502 kts | 106° |
| 2026-04-26 23:29 | -25.35815 | 141.24422 | 41164 ft | 503 kts | 106° |
| 2026-04-26 23:30 | -25.37209 | 141.31969 | 41166 ft | 503 kts | 106° |
| 2026-04-26 23:30 | -25.38598 | 141.39508 | 41164 ft | 503 kts | 106° |
| 2026-04-26 23:31 | -25.39986 | 141.47064 | 41167 ft | 503 kts | 106° |
| 2026-04-26 23:31 | -25.41368 | 141.54614 | 41169 ft | 503 kts | 106° |
| 2026-04-26 23:32 | -25.42752 | 141.62193 | 41169 ft | 503 kts | 106° |
| 2026-04-26 23:32 | -25.44132 | 141.69777 | 41177 ft | 502 kts | 106° |
| 2026-04-26 23:33 | -25.45500 | 141.77321 | 41177 ft | 502 kts | 106° |
| 2026-04-26 23:33 | -25.46868 | 141.84874 | 41184 ft | 502 kts | 106° |
| 2026-04-26 23:34 | -25.48232 | 141.92438 | 41179 ft | 503 kts | 106° |
| 2026-04-26 23:34 | -25.49586 | 141.99968 | 41178 ft | 503 kts | 106° |
| 2026-04-26 23:35 | -25.50945 | 142.07558 | 41180 ft | 502 kts | 107° |
| 2026-04-26 23:35 | -25.52294 | 142.15109 | 41184 ft | 501 kts | 107° |
| 2026-04-26 23:36 | -25.53639 | 142.22667 | 41185 ft | 501 kts | 107° |
| 2026-04-26 23:36 | -25.54982 | 142.30222 | 41186 ft | 502 kts | 107° |
| 2026-04-26 23:37 | -25.56322 | 142.37782 | 41185 ft | 502 kts | 107° |
| 2026-04-26 23:37 | -25.57658 | 142.45352 | 41187 ft | 502 kts | 107° |
| 2026-04-26 23:38 | -25.58989 | 142.52922 | 41187 ft | 502 kts | 107° |
| 2026-04-26 23:38 | -25.60306 | 142.60434 | 41188 ft | 502 kts | 107° |
| 2026-04-26 23:39 | -25.61631 | 142.68015 | 41189 ft | 502 kts | 107° |
| 2026-04-26 23:39 | -25.62955 | 142.75609 | 41191 ft | 501 kts | 107° |
| 2026-04-26 23:40 | -25.64265 | 142.83153 | 41193 ft | 501 kts | 107° |
| 2026-04-26 23:40 | -25.65570 | 142.90692 | 41195 ft | 501 kts | 107° |
| 2026-04-26 23:41 | -25.66875 | 142.98248 | 41198 ft | 501 kts | 107° |
| 2026-04-26 23:41 | -25.68183 | 143.05852 | 41193 ft | 501 kts | 107° |
| 2026-04-26 23:42 | -25.69483 | 143.13428 | 41200 ft | 502 kts | 107° |
| 2026-04-26 23:42 | -25.71423 | 143.24779 | 41195 ft | 503 kts | 107° |
| 2026-04-26 23:43 | -25.72714 | 143.32371 | 41199 ft | 502 kts | 107° |
| 2026-04-26 23:43 | -25.74005 | 143.39986 | 41198 ft | 502 kts | 107° |
| 2026-04-26 23:44 | -25.75290 | 143.47586 | 41199 ft | 503 kts | 107° |
| 2026-04-26 23:44 | -25.76566 | 143.55168 | 41204 ft | 502 kts | 107° |
| 2026-04-26 23:45 | -25.77842 | 143.62766 | 41205 ft | 502 kts | 107° |
| 2026-04-26 23:45 | -25.79115 | 143.70381 | 41203 ft | 502 kts | 107° |
| 2026-04-26 23:46 | -25.80378 | 143.77946 | 41206 ft | 502 kts | 107° |
| 2026-04-26 23:46 | -25.81647 | 143.85591 | 41206 ft | 502 kts | 107° |
| 2026-04-26 23:47 | -25.82905 | 143.93173 | 41206 ft | 504 kts | 107° |
| 2026-04-26 23:47 | -25.84168 | 144.00815 | 41197 ft | 504 kts | 107° |
| 2026-04-26 23:48 | -25.85421 | 144.08440 | 41201 ft | 503 kts | 107° |
| 2026-04-26 23:48 | -25.86671 | 144.16063 | 41200 ft | 504 kts | 107° |
| 2026-04-26 23:49 | -25.87920 | 144.23702 | 41179 ft | 504 kts | 107° |
| 2026-04-26 23:49 | -25.89167 | 144.31354 | 41201 ft | 505 kts | 107° |
| 2026-04-26 23:50 | -25.90408 | 144.39023 | 41202 ft | 505 kts | 107° |
| 2026-04-26 23:50 | -25.91638 | 144.46649 | 41198 ft | 505 kts | 107° |
| 2026-04-26 23:51 | -25.92868 | 144.54300 | 41190 ft | 504 kts | 106° |
| 2026-04-26 23:51 | -25.94097 | 144.61969 | 41210 ft | 505 kts | 106° |
| 2026-04-26 23:52 | -25.95317 | 144.69618 | 41211 ft | 506 kts | 106° |
| 2026-04-26 23:52 | -25.96541 | 144.77315 | 41195 ft | 507 kts | 105° |
| 2026-04-26 23:53 | -25.97762 | 144.85027 | 41192 ft | 507 kts | 105° |
| 2026-04-26 23:53 | -25.98981 | 144.92740 | 41207 ft | 507 kts | 105° |
| 2026-04-26 23:54 | -26.00190 | 145.00444 | 41201 ft | 507 kts | 105° |
| 2026-04-26 23:54 | -26.01394 | 145.08125 | 41210 ft | 508 kts | 105° |
| 2026-04-26 23:55 | -26.02600 | 145.15839 | 41189 ft | 507 kts | 105° |
| 2026-04-26 23:55 | -26.03797 | 145.23534 | 41206 ft | 506 kts | 105° |
| 2026-04-26 23:56 | -26.04985 | 145.31189 | 41189 ft | 505 kts | 105° |
| 2026-04-26 23:56 | -26.06176 | 145.38896 | 41212 ft | 506 kts | 105° |
| 2026-04-26 23:57 | -26.07352 | 145.46533 | 41219 ft | 506 kts | 105° |
| 2026-04-26 23:57 | -26.08531 | 145.54228 | 41216 ft | 505 kts | 105° |
| 2026-04-26 23:58 | -26.09705 | 145.61908 | 41180 ft | 506 kts | 105° |
| 2026-04-26 23:58 | -26.10876 | 145.69608 | 41202 ft | 505 kts | 105° |
| 2026-04-26 23:59 | -26.12046 | 145.77304 | 41183 ft | 505 kts | 104° |
| 2026-04-26 23:59 | -26.13204 | 145.84970 | 41209 ft | 504 kts | 104° |
| 2026-04-27 00:00 | -26.14357 | 145.92642 | 41218 ft | 504 kts | 104° |
| 2026-04-27 00:00 | -26.15509 | 146.00311 | 41198 ft | 504 kts | 104° |
| 2026-04-27 00:01 | -26.16654 | 146.07973 | 41202 ft | 504 kts | 104° |
| 2026-04-27 00:01 | -26.17800 | 146.15659 | 41208 ft | 506 kts | 104° |
| 2026-04-27 00:02 | -26.18946 | 146.23383 | 41210 ft | 507 kts | 104° |
| 2026-04-27 00:02 | -26.20082 | 146.31073 | 41214 ft | 507 kts | 104° |
| 2026-04-27 00:03 | -26.21223 | 146.38831 | 41220 ft | 507 kts | 103° |
| 2026-04-27 00:03 | -26.22354 | 146.46530 | 41219 ft | 507 kts | 103° |
| 2026-04-27 00:04 | -26.23483 | 146.54262 | 41221 ft | 507 kts | 103° |
| 2026-04-27 00:04 | -26.24606 | 146.61975 | 41224 ft | 507 kts | 103° |
| 2026-04-27 00:05 | -26.25731 | 146.69746 | 41233 ft | 507 kts | 103° |
| 2026-04-27 00:05 | -26.26841 | 146.77429 | 41277 ft | 506 kts | 102° |
| 2026-04-27 00:06 | -26.27957 | 146.85184 | 41248 ft | 507 kts | 102° |
| 2026-04-27 00:06 | -26.29059 | 146.92874 | 41304 ft | 505 kts | 102° |
| 2026-04-27 00:07 | -26.30157 | 147.00572 | 41258 ft | 505 kts | 102° |
| 2026-04-27 00:07 | -26.31253 | 147.08270 | 41192 ft | 504 kts | 102° |
| 2026-04-27 00:08 | -26.32348 | 147.16017 | 41172 ft | 505 kts | 102° |
| 2026-04-27 00:08 | -26.33432 | 147.23711 | 41217 ft | 506 kts | 102° |
| 2026-04-27 00:09 | -26.34517 | 147.31433 | 41227 ft | 506 kts | 101° |
| 2026-04-27 00:09 | -26.35602 | 147.39191 | 41225 ft | 506 kts | 101° |
| 2026-04-27 00:10 | -26.36679 | 147.46915 | 41229 ft | 508 kts | 101° |
| 2026-04-27 00:10 | -26.37753 | 147.54646 | 41236 ft | 507 kts | 101° |
| 2026-04-27 00:11 | -26.38826 | 147.62415 | 41230 ft | 508 kts | 101° |
| 2026-04-27 00:11 | -26.39895 | 147.70177 | 41234 ft | 509 kts | 101° |
| 2026-04-27 00:12 | -26.40964 | 147.77992 | 41240 ft | 510 kts | 101° |
| 2026-04-27 00:12 | -26.42024 | 147.85747 | 41238 ft | 508 kts | 100° |
| 2026-04-27 00:13 | -26.43082 | 147.93533 | 41236 ft | 509 kts | 100° |
| 2026-04-27 00:13 | -26.44130 | 148.01266 | 41242 ft | 507 kts | 100° |
| 2026-04-27 00:14 | -26.45174 | 148.09026 | 41242 ft | 508 kts | 100° |
| 2026-04-27 00:14 | -26.46219 | 148.16800 | 41243 ft | 508 kts | 100° |
| 2026-04-27 00:15 | -26.47259 | 148.24582 | 41240 ft | 508 kts | 100° |
| 2026-04-27 00:15 | -26.48296 | 148.32370 | 41236 ft | 507 kts | 100° |
| 2026-04-27 00:16 | -26.49317 | 148.40086 | 41234 ft | 507 kts | 100° |
| 2026-04-27 00:16 | -26.50349 | 148.47891 | 41237 ft | 509 kts | 100° |
| 2026-04-27 00:17 | -26.51368 | 148.55633 | 41233 ft | 507 kts | 100° |
| 2026-04-27 00:17 | -26.52382 | 148.63386 | 41234 ft | 507 kts | 99° |
| 2026-04-27 00:18 | -26.53394 | 148.71158 | 41234 ft | 506 kts | 99° |
| 2026-04-27 00:18 | -26.54712 | 148.78819 | 41231 ft | 504 kts | 105° |
| 2026-04-27 00:19 | -26.56719 | 148.86282 | 41236 ft | 503 kts | 110° |
| 2026-04-27 00:19 | -26.58963 | 148.93687 | 41239 ft | 502 kts | 110° |
| 2026-04-27 00:20 | -26.61188 | 149.01028 | 41235 ft | 502 kts | 110° |
| 2026-04-27 00:20 | -26.63414 | 149.08423 | 41241 ft | 502 kts | 109° |
| 2026-04-27 00:21 | -26.65620 | 149.15782 | 41245 ft | 503 kts | 109° |
| 2026-04-27 00:21 | -26.67837 | 149.23202 | 41235 ft | 503 kts | 109° |
| 2026-04-27 00:22 | -26.70041 | 149.30592 | 41239 ft | 503 kts | 109° |
| 2026-04-27 00:22 | -26.72237 | 149.37968 | 41232 ft | 503 kts | 109° |
| 2026-04-27 00:23 | -26.74443 | 149.45395 | 41240 ft | 502 kts | 109° |
| 2026-04-27 00:23 | -26.76629 | 149.52773 | 41241 ft | 502 kts | 109° |
| 2026-04-27 00:24 | -26.78821 | 149.60182 | 41249 ft | 502 kts | 109° |
| 2026-04-27 00:24 | -26.81003 | 149.67572 | 41246 ft | 501 kts | 109° |
| 2026-04-27 00:25 | -26.83165 | 149.74919 | 41243 ft | 500 kts | 109° |
| 2026-04-27 00:25 | -26.85330 | 149.82291 | 41245 ft | 500 kts | 109° |
| 2026-04-27 00:26 | -26.87488 | 149.89648 | 41250 ft | 500 kts | 108° |
| 2026-04-27 00:26 | -26.89660 | 149.97070 | 41233 ft | 500 kts | 108° |
| 2026-04-27 00:27 | -26.91799 | 150.04396 | 41072 ft | 491 kts | 108° |
| 2026-04-27 00:27 | -26.92847 | 150.07993 | 40597 ft | 488 kts | 108° |
| 2026-04-27 00:27 | -26.93893 | 150.11581 | 39935 ft | 488 kts | 108° |
| 2026-04-27 00:28 | -26.94940 | 150.15179 | 39219 ft | 488 kts | 108° |
| 2026-04-27 00:28 | -26.95984 | 150.18771 | 38578 ft | 487 kts | 108° |
| 2026-04-27 00:28 | -26.97028 | 150.22368 | 38000 ft | 486 kts | 108° |
| 2026-04-27 00:28 | -26.98068 | 150.25955 | 37400 ft | 485 kts | 108° |
| 2026-04-27 00:29 | -26.99105 | 150.29530 | 36791 ft | 483 kts | 108° |
| 2026-04-27 00:29 | -27.00138 | 150.33095 | 36125 ft | 482 kts | 108° |
| 2026-04-27 00:29 | -27.01168 | 150.36656 | 35501 ft | 481 kts | 107° |
| 2026-04-27 00:29 | -27.02197 | 150.40222 | 34861 ft | 482 kts | 107° |
| 2026-04-27 00:30 | -27.03218 | 150.43767 | 34291 ft | 480 kts | 107° |
| 2026-04-27 00:30 | -27.04233 | 150.47290 | 33751 ft | 474 kts | 107° |
| 2026-04-27 00:30 | -27.05235 | 150.50771 | 33376 ft | 465 kts | 107° |
| 2026-04-27 00:30 | -27.06210 | 150.54169 | 33007 ft | 456 kts | 107° |
| 2026-04-27 00:31 | -27.07177 | 150.57530 | 32618 ft | 449 kts | 107° |
| 2026-04-27 00:31 | -27.08123 | 150.60829 | 32241 ft | 442 kts | 107° |
| 2026-04-27 00:31 | -27.09058 | 150.64093 | 31862 ft | 436 kts | 107° |
| 2026-04-27 00:31 | -27.09981 | 150.67320 | 31485 ft | 430 kts | 107° |
| 2026-04-27 00:32 | -27.10891 | 150.70505 | 31097 ft | 425 kts | 107° |
| 2026-04-27 00:32 | -27.11786 | 150.73633 | 30739 ft | 419 kts | 107° |
| 2026-04-27 00:32 | -27.12672 | 150.76733 | 30380 ft | 414 kts | 107° |
| 2026-04-27 00:32 | -27.13541 | 150.79781 | 30000 ft | 410 kts | 107° |
| 2026-04-27 00:33 | -27.14397 | 150.82782 | 29650 ft | 406 kts | 107° |
| 2026-04-27 00:33 | -27.15256 | 150.85803 | 29276 ft | 402 kts | 107° |
| 2026-04-27 00:33 | -27.16098 | 150.88760 | 28886 ft | 399 kts | 107° |
| 2026-04-27 00:33 | -27.16934 | 150.91704 | 28504 ft | 396 kts | 107° |
| 2026-04-27 00:34 | -27.17765 | 150.94629 | 28142 ft | 392 kts | 107° |
| 2026-04-27 00:34 | -27.18580 | 150.97499 | 27766 ft | 389 kts | 107° |
| 2026-04-27 00:34 | -27.19400 | 151.00394 | 27394 ft | 386 kts | 107° |
| 2026-04-27 00:34 | -27.20210 | 151.03252 | 27020 ft | 384 kts | 107° |
| 2026-04-27 00:35 | -27.21008 | 151.06070 | 26662 ft | 381 kts | 107° |
| 2026-04-27 00:35 | -27.21807 | 151.08896 | 26268 ft | 379 kts | 107° |
| 2026-04-27 00:35 | -27.22601 | 151.11705 | 25813 ft | 379 kts | 107° |
| 2026-04-27 00:35 | -27.23395 | 151.14517 | 25362 ft | 379 kts | 107° |
| 2026-04-27 00:36 | -27.24188 | 151.17328 | 24958 ft | 377 kts | 107° |
| 2026-04-27 00:36 | -27.24974 | 151.20114 | 24582 ft | 374 kts | 107° |
| 2026-04-27 00:36 | -27.25754 | 151.22884 | 24220 ft | 371 kts | 107° |
| 2026-04-27 00:36 | -27.26524 | 151.25623 | 23873 ft | 368 kts | 107° |
| 2026-04-27 00:37 | -27.27290 | 151.28343 | 23499 ft | 366 kts | 107° |
| 2026-04-27 00:37 | -27.28052 | 151.31052 | 23131 ft | 363 kts | 107° |
| 2026-04-27 00:37 | -27.28812 | 151.33757 | 22759 ft | 362 kts | 107° |
| 2026-04-27 00:37 | -27.29563 | 151.36440 | 22377 ft | 360 kts | 107° |
| 2026-04-27 00:38 | -27.30313 | 151.39117 | 22028 ft | 358 kts | 107° |
| 2026-04-27 00:38 | -27.31055 | 151.41766 | 21700 ft | 355 kts | 107° |
| 2026-04-27 00:38 | -27.31795 | 151.44418 | 21361 ft | 352 kts | 107° |
| 2026-04-27 00:38 | -27.32523 | 151.47025 | 21019 ft | 350 kts | 107° |
| 2026-04-27 00:39 | -27.33250 | 151.49623 | 20654 ft | 348 kts | 107° |
| 2026-04-27 00:39 | -27.33972 | 151.52208 | 20300 ft | 347 kts | 107° |
| 2026-04-27 00:39 | -27.34690 | 151.54782 | 19934 ft | 345 kts | 107° |
| 2026-04-27 00:39 | -27.35398 | 151.57323 | 19593 ft | 343 kts | 107° |
| 2026-04-27 00:40 | -27.36109 | 151.59878 | 19265 ft | 340 kts | 107° |
| 2026-04-27 00:40 | -27.36811 | 151.62402 | 18920 ft | 338 kts | 107° |
| 2026-04-27 00:40 | -27.37509 | 151.64914 | 18555 ft | 337 kts | 107° |
| 2026-04-27 00:40 | -27.38208 | 151.67430 | 18209 ft | 335 kts | 107° |
| 2026-04-27 00:41 | -27.38899 | 151.69922 | 17869 ft | 333 kts | 107° |
| 2026-04-27 00:41 | -27.39588 | 151.72403 | 17539 ft | 331 kts | 107° |
| 2026-04-27 00:41 | -27.40271 | 151.74866 | 17205 ft | 329 kts | 107° |
| 2026-04-27 00:41 | -27.40939 | 151.77278 | 16872 ft | 327 kts | 107° |
| 2026-04-27 00:42 | -27.41617 | 151.79732 | 16541 ft | 324 kts | 107° |
| 2026-04-27 00:42 | -27.42279 | 151.82130 | 16226 ft | 322 kts | 107° |
| 2026-04-27 00:42 | -27.42937 | 151.84515 | 15887 ft | 320 kts | 107° |
| 2026-04-27 00:42 | -27.43594 | 151.86900 | 15535 ft | 319 kts | 107° |
| 2026-04-27 00:43 | -27.44249 | 151.89278 | 15192 ft | 318 kts | 107° |
| 2026-04-27 00:43 | -27.44933 | 151.91611 | 14855 ft | 316 kts | 111° |
| 2026-04-27 00:43 | -27.45900 | 151.93857 | 14519 ft | 314 kts | 119° |
| 2026-04-27 00:43 | -27.47115 | 151.95874 | 14192 ft | 313 kts | 126° |
| 2026-04-27 00:44 | -27.48443 | 151.97804 | 13888 ft | 311 kts | 127° |
| 2026-04-27 00:44 | -27.49771 | 151.99698 | 13569 ft | 308 kts | 127° |
| 2026-04-27 00:44 | -27.51097 | 152.01590 | 13265 ft | 306 kts | 127° |
| 2026-04-27 00:44 | -27.52407 | 152.03467 | 12936 ft | 305 kts | 127° |
| 2026-04-27 00:45 | -27.53714 | 152.05342 | 12599 ft | 304 kts | 127° |
| 2026-04-27 00:45 | -27.55005 | 152.07199 | 12255 ft | 303 kts | 127° |
| 2026-04-27 00:45 | -27.56298 | 152.09062 | 11898 ft | 302 kts | 127° |
| 2026-04-27 00:45 | -27.57602 | 152.10944 | 11534 ft | 302 kts | 127° |
| 2026-04-27 00:46 | -27.58886 | 152.12793 | 11201 ft | 301 kts | 127° |
| 2026-04-27 00:46 | -27.60164 | 152.14636 | 10855 ft | 300 kts | 127° |
| 2026-04-27 00:46 | -27.61456 | 152.16501 | 10519 ft | 298 kts | 127° |
| 2026-04-27 00:46 | -27.62717 | 152.18321 | 10200 ft | 296 kts | 127° |
| 2026-04-27 00:47 | -27.63978 | 152.20142 | 10116 ft | 285 kts | 127° |
| 2026-04-27 00:47 | -27.65174 | 152.21869 | 10059 ft | 274 kts | 127° |
| 2026-04-27 00:47 | -27.66326 | 152.23534 | 9940 ft | 267 kts | 127° |
| 2026-04-27 00:47 | -27.67454 | 152.25168 | 9629 ft | 267 kts | 127° |
| 2026-04-27 00:48 | -27.68592 | 152.26817 | 9335 ft | 266 kts | 127° |
| 2026-04-27 00:48 | -27.69729 | 152.28464 | 9051 ft | 265 kts | 127° |
| 2026-04-27 00:48 | -27.70866 | 152.30112 | 8776 ft | 264 kts | 127° |
| 2026-04-27 00:48 | -27.71985 | 152.31732 | 8502 ft | 262 kts | 127° |
| 2026-04-27 00:49 | -27.73107 | 152.33357 | 8228 ft | 261 kts | 127° |
| 2026-04-27 00:49 | -27.74038 | 152.35089 | 7932 ft | 258 kts | 107° |
| 2026-04-27 00:49 | -27.74196 | 152.37064 | 7655 ft | 258 kts | 83° |
| 2026-04-27 00:49 | -27.73734 | 152.39011 | 7406 ft | 256 kts | 75° |
| 2026-04-27 00:50 | -27.73214 | 152.40927 | 7150 ft | 255 kts | 75° |
| 2026-04-27 00:50 | -27.72191 | 152.44736 | 6631 ft | 252 kts | 76° |
| 2026-04-27 00:50 | -27.71687 | 152.46603 | 6378 ft | 250 kts | 72° |
| 2026-04-27 00:51 | -27.70746 | 152.48265 | 6065 ft | 257 kts | 46° |
| 2026-04-27 00:51 | -27.69177 | 152.49258 | 5733 ft | 267 kts | 19° |
| 2026-04-27 00:51 | -27.67301 | 152.49362 | 5430 ft | 274 kts | 358° |
| 2026-04-27 00:51 | -27.65379 | 152.49118 | 5122 ft | 275 kts | 360° |
| 2026-04-27 00:52 | -27.63487 | 152.49057 | 4828 ft | 273 kts | 5° |
| 2026-04-27 00:52 | -27.61590 | 152.49213 | 4544 ft | 271 kts | 11° |
| 2026-04-27 00:52 | -27.59725 | 152.49576 | 4263 ft | 270 kts | 17° |
| 2026-04-27 00:52 | -27.57939 | 152.50125 | 3989 ft | 268 kts | 22° |
| 2026-04-27 00:53 | -27.56183 | 152.50871 | 3718 ft | 266 kts | 28° |
| 2026-04-27 00:53 | -27.54542 | 152.51775 | 3446 ft | 264 kts | 33° |
| 2026-04-27 00:53 | -27.52973 | 152.52852 | 3176 ft | 262 kts | 38° |
| 2026-04-27 00:53 | -27.51509 | 152.54074 | 2910 ft | 260 kts | 43° |
| 2026-04-27 00:54 | -27.50169 | 152.55423 | 2769 ft | 253 kts | 49° |
| 2026-04-27 00:54 | -27.48999 | 152.56821 | 2771 ft | 240 kts | 53° |
| 2026-04-27 00:54 | -27.47980 | 152.58263 | 2773 ft | 229 kts | 58° |
| 2026-04-27 00:54 | -27.47115 | 152.59718 | 2761 ft | 217 kts | 65° |
| 2026-04-27 00:55 | -27.46789 | 152.61276 | 2723 ft | 200 kts | 103° |
| 2026-04-27 00:55 | -27.47399 | 152.62616 | 2722 ft | 189 kts | 130° |
| 2026-04-27 00:55 | -27.48229 | 152.63699 | 2722 ft | 176 kts | 129° |
| 2026-04-27 00:55 | -27.48996 | 152.64714 | 2669 ft | 164 kts | 134° |
| 2026-04-27 00:56 | -27.49932 | 152.65372 | 2576 ft | 159 kts | 155° |
| 2026-04-27 00:56 | -27.50984 | 152.65758 | 2369 ft | 155 kts | 159° |
| 2026-04-27 00:56 | -27.51984 | 152.66116 | 2172 ft | 146 kts | 158° |
| 2026-04-27 00:56 | -27.52922 | 152.66490 | 1981 ft | 140 kts | 156° |
| 2026-04-27 00:57 | -27.53810 | 152.66869 | 1803 ft | 134 kts | 156° |
| 2026-04-27 00:57 | -27.54655 | 152.67238 | 1634 ft | 127 kts | 155° |
| 2026-04-27 00:57 | -27.55465 | 152.67595 | 1470 ft | 123 kts | 155° |
| 2026-04-27 00:57 | -27.56269 | 152.67949 | 1329 ft | 124 kts | 156° |
| 2026-04-27 00:58 | -27.57077 | 152.68303 | 1176 ft | 124 kts | 156° |
| 2026-04-27 00:58 | -27.57880 | 152.68654 | 1020 ft | 123 kts | 156° |
| 2026-04-27 00:58 | -27.58682 | 152.69005 | 854 ft | 123 kts | 157° |
| 2026-04-27 00:58 | -27.59489 | 152.69359 | 692 ft | 123 kts | 157° |
| 2026-04-27 00:59 | -27.60281 | 152.69704 | 530 ft | 122 kts | 157° |
| 2026-04-27 00:59 | -27.61081 | 152.70053 | 370 ft | 122 kts | 158° |
| 2026-04-27 00:59 | -27.61877 | 152.70401 | 207 ft | 122 kts | 158° |
| 2026-04-27 00:59 | -27.62648 | 152.70732 | 115 ft | 105 kts | 158° |
| 2026-04-27 01:00 | -27.63067 | 152.70917 | 114 ft | 36 kts | 158° |
| 2026-04-27 01:00 | -27.63293 | 152.71021 | 116 ft | 27 kts | 157° |
| 2026-04-27 01:00 | -27.63385 | 152.71013 | 117 ft | 11 kts | 243° |
| 2026-04-27 01:00 | -27.63378 | 152.70926 | 118 ft | 11 kts | 282° |
| 2026-04-27 01:01 | -27.63346 | 152.70845 | 119 ft | 12 kts | 308° |
| 2026-04-27 01:01 | -27.63267 | 152.70793 | 118 ft | 15 kts | 337° |
| 2026-04-27 01:01 | -27.63165 | 152.70749 | 117 ft | 16 kts | 338° |
| 2026-04-27 01:01 | -27.63053 | 152.70700 | 118 ft | 17 kts | 338° |
| 2026-04-27 01:02 | -27.62935 | 152.70648 | 118 ft | 18 kts | 339° |
| 2026-04-27 01:02 | -27.62810 | 152.70593 | 118 ft | 19 kts | 338° |
| 2026-04-27 01:02 | -27.62683 | 152.70538 | 115 ft | 20 kts | 339° |
| 2026-04-27 01:02 | -27.62572 | 152.70489 | 110 ft | 12 kts | 330° |
| 2026-04-27 01:03 | -27.62557 | 152.70396 | 109 ft | 14 kts | 250° |
| 2026-04-27 01:03 | -27.62587 | 152.70299 | 110 ft | 9 kts | 273° |
| 2026-04-27 01:03 | -27.62557 | 152.70256 | 112 ft | 0 kts | 331° |